sensor_id;sensor_type;location;lat;lon;timestamp;pressure;altitude;pressure_sealevel;temperature;humidity
70009;BME280;59542;37.950;-122.338;2023-06-05T00:02:05;100746.28;;;18.43;60.53
70009;BME280;59542;37.950;-122.338;2023-06-05T00:04:32;100747.63;;;18.08;59.95
70009;BME280;59542;37.950;-122.338;2023-06-05T00:06:58;100744.28;;;17.96;61.21
70009;BME280;59542;37.950;-122.338;2023-06-05T00:09:24;100741.66;;;18.06;61.33
70009;BME280;59542;37.950;-122.338;2023-06-05T00:11:50;100736.22;;;17.74;60.24
70009;BME280;59542;37.950;-122.338;2023-06-05T00:14:16;100742.88;;;17.88;61.06
70009;BME280;59542;37.950;-122.338;2023-06-05T00:16:43;100738.38;;;17.72;61.09
70009;BME280;59542;37.950;-122.338;2023-06-05T00:19:09;100737.31;;;17.51;62.07
70009;BME280;59542;37.950;-122.338;2023-06-05T00:21:35;100738.03;;;16.98;63.21
70009;BME280;59542;37.950;-122.338;2023-06-05T00:24:02;100732.69;;;17.03;64.84
70009;BME280;59542;37.950;-122.338;2023-06-05T00:26:28;100736.22;;;17.03;65.65
70009;BME280;59542;37.950;-122.338;2023-06-05T00:28:54;100729.84;;;16.93;65.10
70009;BME280;59542;37.950;-122.338;2023-06-05T00:31:20;100730.63;;;16.88;64.79
70009;BME280;59542;37.950;-122.338;2023-06-05T00:33:48;100726.53;;;16.85;64.22
70009;BME280;59542;37.950;-122.338;2023-06-05T00:36:14;100726.09;;;16.94;64.47
70009;BME280;59542;37.950;-122.338;2023-06-05T00:38:40;100727.78;;;16.78;64.75
70009;BME280;59542;37.950;-122.338;2023-06-05T00:41:07;100713.47;;;16.60;65.62
70009;BME280;59542;37.950;-122.338;2023-06-05T00:43:33;100713.19;;;16.62;65.18
70009;BME280;59542;37.950;-122.338;2023-06-05T00:46:02;100709.31;;;16.36;65.73
70009;BME280;59542;37.950;-122.338;2023-06-05T00:48:29;100713.50;;;16.66;66.43
70009;BME280;59542;37.950;-122.338;2023-06-05T00:50:57;100709.44;;;16.63;65.97
70009;BME280;59542;37.950;-122.338;2023-06-05T00:53:24;100708.34;;;16.64;66.42
70009;BME280;59542;37.950;-122.338;2023-06-05T00:55:51;100711.59;;;16.44;66.79
70009;BME280;59542;37.950;-122.338;2023-06-05T00:58:18;100711.72;;;16.54;66.73
70009;BME280;59542;37.950;-122.338;2023-06-05T01:00:44;100712.09;;;16.41;66.61
70009;BME280;59542;37.950;-122.338;2023-06-05T01:03:12;100704.84;;;16.63;67.06
70009;BME280;59542;37.950;-122.338;2023-06-05T01:05:38;100711.75;;;16.37;67.43
70009;BME280;59542;37.950;-122.338;2023-06-05T01:08:05;100705.53;;;16.37;67.39
70009;BME280;59542;37.950;-122.338;2023-06-05T01:10:34;100708.31;;;16.42;67.38
70009;BME280;59542;37.950;-122.338;2023-06-05T01:15:29;100704.91;;;16.30;67.11
70009;BME280;59542;37.950;-122.338;2023-06-05T01:17:59;100711.28;;;16.07;67.67
70009;BME280;59542;37.950;-122.338;2023-06-05T01:20:39;100702.53;;;16.00;68.01
70009;BME280;59542;37.950;-122.338;2023-06-05T01:23:06;100695.25;;;15.83;69.53
70009;BME280;59542;37.950;-122.338;2023-06-05T01:25:33;100705.31;;;15.59;69.51
70009;BME280;59542;37.950;-122.338;2023-06-05T01:28:13;100711.59;;;15.77;69.20
70009;BME280;59542;37.950;-122.338;2023-06-05T01:31:10;100700.81;;;15.77;69.25
70009;BME280;59542;37.950;-122.338;2023-06-05T01:33:51;100699.25;;;15.52;69.83
70009;BME280;59542;37.950;-122.338;2023-06-05T01:36:22;100705.06;;;15.73;69.84
70009;BME280;59542;37.950;-122.338;2023-06-05T01:38:49;100695.88;;;15.74;69.48
70009;BME280;59542;37.950;-122.338;2023-06-05T01:41:17;100694.28;;;15.61;70.34
70009;BME280;59542;37.950;-122.338;2023-06-05T01:43:45;100702.59;;;15.71;69.80
70009;BME280;59542;37.950;-122.338;2023-06-05T01:46:17;100703.25;;;15.78;69.05
70009;BME280;59542;37.950;-122.338;2023-06-05T01:48:44;100700.63;;;15.67;68.98
70009;BME280;59542;37.950;-122.338;2023-06-05T01:51:11;100702.34;;;15.44;70.37
70009;BME280;59542;37.950;-122.338;2023-06-05T01:53:37;100700.28;;;15.63;70.56
70009;BME280;59542;37.950;-122.338;2023-06-05T01:56:04;100700.41;;;15.56;70.72
70009;BME280;59542;37.950;-122.338;2023-06-05T01:58:33;100698.63;;;15.62;70.60
70009;BME280;59542;37.950;-122.338;2023-06-05T02:01:01;100689.72;;;15.62;70.07
70009;BME280;59542;37.950;-122.338;2023-06-05T02:03:28;100692.63;;;15.72;69.60
70009;BME280;59542;37.950;-122.338;2023-06-05T02:05:54;100695.72;;;15.64;69.35
70009;BME280;59542;37.950;-122.338;2023-06-05T02:08:21;100711.63;;;15.94;68.71
70009;BME280;59542;37.950;-122.338;2023-06-05T02:10:51;100700.28;;;15.63;69.68
70009;BME280;59542;37.950;-122.338;2023-06-05T02:13:19;100705.72;;;15.80;69.40
70009;BME280;59542;37.950;-122.338;2023-06-05T02:15:46;100703.00;;;15.63;69.10
70009;BME280;59542;37.950;-122.338;2023-06-05T02:18:12;100705.38;;;15.76;69.11
70009;BME280;59542;37.950;-122.338;2023-06-05T02:20:40;100703.56;;;15.82;69.30
70009;BME280;59542;37.950;-122.338;2023-06-05T02:23:07;100705.00;;;15.56;69.44
70009;BME280;59542;37.950;-122.338;2023-06-05T02:25:33;100711.09;;;15.51;69.85
70009;BME280;59542;37.950;-122.338;2023-06-05T02:27:59;100719.91;;;15.47;69.65
70009;BME280;59542;37.950;-122.338;2023-06-05T02:30:25;100726.47;;;15.51;69.94
70009;BME280;59542;37.950;-122.338;2023-06-05T02:32:52;100716.41;;;15.46;69.91
70009;BME280;59542;37.950;-122.338;2023-06-05T02:35:26;100718.03;;;15.47;70.33
70009;BME280;59542;37.950;-122.338;2023-06-05T02:37:52;100715.75;;;15.39;70.52
70009;BME280;59542;37.950;-122.338;2023-06-05T02:40:19;100719.97;;;15.35;71.12
70009;BME280;59542;37.950;-122.338;2023-06-05T02:42:45;100725.63;;;15.34;71.39
70009;BME280;59542;37.950;-122.338;2023-06-05T02:45:11;100715.78;;;15.27;71.02
70009;BME280;59542;37.950;-122.338;2023-06-05T02:47:37;100714.34;;;14.96;72.37
70009;BME280;59542;37.950;-122.338;2023-06-05T02:50:05;100710.91;;;15.13;72.04
70009;BME280;59542;37.950;-122.338;2023-06-05T02:52:32;100708.63;;;14.81;73.39
70009;BME280;59542;37.950;-122.338;2023-06-05T02:55:01;100720.84;;;14.72;72.96
70009;BME280;59542;37.950;-122.338;2023-06-05T02:57:28;100723.28;;;14.38;74.21
70009;BME280;59542;37.950;-122.338;2023-06-05T02:59:54;100719.06;;;14.31;75.13
70009;BME280;59542;37.950;-122.338;2023-06-05T03:02:21;100735.88;;;14.14;76.05
70009;BME280;59542;37.950;-122.338;2023-06-05T03:04:48;100728.72;;;13.96;77.24
70009;BME280;59542;37.950;-122.338;2023-06-05T03:07:19;100737.38;;;13.98;77.44
70009;BME280;59542;37.950;-122.338;2023-06-05T03:09:45;100739.88;;;13.70;78.58
70009;BME280;59542;37.950;-122.338;2023-06-05T03:12:11;100740.16;;;13.50;79.27
70009;BME280;59542;37.950;-122.338;2023-06-05T03:14:38;100739.00;;;13.58;79.39
70009;BME280;59542;37.950;-122.338;2023-06-05T03:17:04;100741.81;;;13.51;79.70
70009;BME280;59542;37.950;-122.338;2023-06-05T03:19:31;100738.06;;;13.22;81.35
70009;BME280;59542;37.950;-122.338;2023-06-05T03:21:57;100735.50;;;13.27;81.37
70009;BME280;59542;37.950;-122.338;2023-06-05T03:24:24;100730.13;;;13.27;81.28
70009;BME280;59542;37.950;-122.338;2023-06-05T03:26:50;100741.00;;;13.32;81.59
70009;BME280;59542;37.950;-122.338;2023-06-05T03:29:16;100739.50;;;13.18;81.75
70009;BME280;59542;37.950;-122.338;2023-06-05T03:31:43;100739.81;;;13.10;82.21
70009;BME280;59542;37.950;-122.338;2023-06-05T03:34:09;100744.75;;;13.13;82.19
70009;BME280;59542;37.950;-122.338;2023-06-05T03:36:36;100736.16;;;12.86;83.80
70009;BME280;59542;37.950;-122.338;2023-06-05T03:39:06;100739.56;;;12.93;84.06
70009;BME280;59542;37.950;-122.338;2023-06-05T03:41:32;100734.66;;;13.08;83.55
70009;BME280;59542;37.950;-122.338;2023-06-05T03:43:58;100730.41;;;12.82;83.79
70009;BME280;59542;37.950;-122.338;2023-06-05T03:46:25;100739.09;;;12.59;85.35
70009;BME280;59542;37.950;-122.338;2023-06-05T03:48:55;100745.47;;;12.65;85.43
70009;BME280;59542;37.950;-122.338;2023-06-05T03:51:25;100753.81;;;12.75;84.88
70009;BME280;59542;37.950;-122.338;2023-06-05T03:53:58;100740.25;;;12.70;85.47
70009;BME280;59542;37.950;-122.338;2023-06-05T03:56:26;100743.09;;;12.75;85.12
70009;BME280;59542;37.950;-122.338;2023-06-05T03:59:02;100736.81;;;12.81;84.62
70009;BME280;59542;37.950;-122.338;2023-06-05T04:01:50;100739.88;;;12.66;85.40
70009;BME280;59542;37.950;-122.338;2023-06-05T04:04:17;100748.22;;;12.58;86.36
70009;BME280;59542;37.950;-122.338;2023-06-05T04:06:43;100746.72;;;12.62;86.25
70009;BME280;59542;37.950;-122.338;2023-06-05T04:09:10;100744.44;;;12.66;85.64
70009;BME280;59542;37.950;-122.338;2023-06-05T04:11:43;100745.47;;;12.65;86.10
70009;BME280;59542;37.950;-122.338;2023-06-05T04:14:10;100739.84;;;12.48;86.69
70009;BME280;59542;37.950;-122.338;2023-06-05T04:16:40;100750.06;;;12.58;86.84
70009;BME280;59542;37.950;-122.338;2023-06-05T04:19:10;100764.00;;;12.48;87.19
70009;BME280;59542;37.950;-122.338;2023-06-05T04:21:37;100765.63;;;12.49;86.87
70009;BME280;59542;37.950;-122.338;2023-06-05T04:24:08;100768.13;;;12.51;86.86
70009;BME280;59542;37.950;-122.338;2023-06-05T04:26:39;100773.41;;;12.57;86.66
70009;BME280;59542;37.950;-122.338;2023-06-05T04:29:09;100771.63;;;12.51;86.90
70009;BME280;59542;37.950;-122.338;2023-06-05T04:31:44;100770.41;;;12.47;86.71
70009;BME280;59542;37.950;-122.338;2023-06-05T04:34:10;100777.31;;;12.36;86.63
70009;BME280;59542;37.950;-122.338;2023-06-05T04:36:37;100785.53;;;12.41;86.54
70009;BME280;59542;37.950;-122.338;2023-06-05T04:39:04;100786.91;;;12.26;87.06
70009;BME280;59542;37.950;-122.338;2023-06-05T04:41:33;100790.72;;;12.36;86.96
70009;BME280;59542;37.950;-122.338;2023-06-05T04:44:02;100792.06;;;12.27;87.88
70009;BME280;59542;37.950;-122.338;2023-06-05T04:46:28;100798.38;;;12.39;87.92
70009;BME280;59542;37.950;-122.338;2023-06-05T04:48:55;100802.84;;;12.46;87.65
70009;BME280;59542;37.950;-122.338;2023-06-05T04:51:23;100805.84;;;12.31;88.25
70009;BME280;59542;37.950;-122.338;2023-06-05T04:53:49;100809.19;;;12.26;88.32
70009;BME280;59542;37.950;-122.338;2023-06-05T04:56:19;100813.69;;;12.32;87.94
70009;BME280;59542;37.950;-122.338;2023-06-05T04:58:48;100815.75;;;12.30;87.76
70009;BME280;59542;37.950;-122.338;2023-06-05T05:01:17;100819.28;;;12.31;87.65
70009;BME280;59542;37.950;-122.338;2023-06-05T05:03:44;100822.06;;;12.18;88.14
70009;BME280;59542;37.950;-122.338;2023-06-05T05:06:15;100819.91;;;12.33;87.23
70009;BME280;59542;37.950;-122.338;2023-06-05T05:08:43;100820.41;;;12.17;87.70
70009;BME280;59542;37.950;-122.338;2023-06-05T05:11:11;100816.63;;;12.24;87.87
70009;BME280;59542;37.950;-122.338;2023-06-05T05:13:37;100817.06;;;12.21;87.84
70009;BME280;59542;37.950;-122.338;2023-06-05T05:16:03;100813.00;;;12.12;88.04
70009;BME280;59542;37.950;-122.338;2023-06-05T05:18:30;100811.97;;;12.13;88.01
70009;BME280;59542;37.950;-122.338;2023-06-05T05:20:56;100812.56;;;12.15;87.94
70009;BME280;59542;37.950;-122.338;2023-06-05T05:23:23;100811.78;;;12.08;88.35
70009;BME280;59542;37.950;-122.338;2023-06-05T05:25:49;100808.25;;;12.14;88.27
70009;BME280;59542;37.950;-122.338;2023-06-05T05:28:15;100808.69;;;12.11;88.49
70009;BME280;59542;37.950;-122.338;2023-06-05T05:30:41;100798.78;;;12.11;88.48
70009;BME280;59542;37.950;-122.338;2023-06-05T05:33:07;100804.16;;;12.11;88.50
70009;BME280;59542;37.950;-122.338;2023-06-05T05:35:34;100807.47;;;12.07;88.71
70009;BME280;59542;37.950;-122.338;2023-06-05T05:38:00;100804.03;;;12.00;88.93
70009;BME280;59542;37.950;-122.338;2023-06-05T05:40:26;100803.50;;;12.16;88.09
70009;BME280;59542;37.950;-122.338;2023-06-05T05:42:53;100783.88;;;12.15;87.78
70009;BME280;59542;37.950;-122.338;2023-06-05T05:45:19;100785.72;;;12.15;88.08
70009;BME280;59542;37.950;-122.338;2023-06-05T05:47:45;100781.59;;;12.19;88.10
70009;BME280;59542;37.950;-122.338;2023-06-05T05:50:11;100776.44;;;12.18;87.93
70009;BME280;59542;37.950;-122.338;2023-06-05T05:52:38;100774.00;;;12.16;88.10
70009;BME280;59542;37.950;-122.338;2023-06-05T05:55:04;100770.63;;;12.21;87.86
70009;BME280;59542;37.950;-122.338;2023-06-05T05:57:31;100764.72;;;12.12;87.79
70009;BME280;59542;37.950;-122.338;2023-06-05T05:59:57;100763.25;;;12.16;88.25
70009;BME280;59542;37.950;-122.338;2023-06-05T06:02:23;100770.50;;;12.09;88.64
70009;BME280;59542;37.950;-122.338;2023-06-05T06:04:50;100765.59;;;12.06;88.37
70009;BME280;59542;37.950;-122.338;2023-06-05T06:07:17;100760.66;;;12.03;88.72
70009;BME280;59542;37.950;-122.338;2023-06-05T06:09:43;100762.78;;;11.94;89.63
70009;BME280;59542;37.950;-122.338;2023-06-05T06:12:10;100756.31;;;12.02;89.33
70009;BME280;59542;37.950;-122.338;2023-06-05T06:14:36;100754.25;;;12.04;89.04
70009;BME280;59542;37.950;-122.338;2023-06-05T06:17:04;100756.31;;;12.02;88.66
70009;BME280;59542;37.950;-122.338;2023-06-05T06:19:31;100757.03;;;11.91;88.96
70009;BME280;59542;37.950;-122.338;2023-06-05T06:21:58;100760.31;;;11.93;89.29
70009;BME280;59542;37.950;-122.338;2023-06-05T06:24:24;100765.25;;;11.96;89.55
70009;BME280;59542;37.950;-122.338;2023-06-05T06:26:52;100762.75;;;12.01;89.64
70009;BME280;59542;37.950;-122.338;2023-06-05T06:29:19;100767.19;;;12.13;88.80
70009;BME280;59542;37.950;-122.338;2023-06-05T06:31:49;100763.34;;;12.03;88.94
70009;BME280;59542;37.950;-122.338;2023-06-05T06:34:16;100765.03;;;11.97;88.82
70009;BME280;59542;37.950;-122.338;2023-06-05T06:36:43;100760.31;;;11.93;89.43
70009;BME280;59542;37.950;-122.338;2023-06-05T06:39:10;100760.09;;;11.94;89.67
70009;BME280;59542;37.950;-122.338;2023-06-05T06:41:37;100763.97;;;12.05;89.47
70009;BME280;59542;37.950;-122.338;2023-06-05T06:44:04;100771.59;;;12.01;89.84
70009;BME280;59542;37.950;-122.338;2023-06-05T06:46:31;100771.84;;;11.93;90.66
70009;BME280;59542;37.950;-122.338;2023-06-05T06:48:58;100775.53;;;11.99;90.31
70009;BME280;59542;37.950;-122.338;2023-06-05T06:51:24;100776.50;;;12.11;89.64
70009;BME280;59542;37.950;-122.338;2023-06-05T06:53:50;100762.03;;;12.12;89.49
70009;BME280;59542;37.950;-122.338;2023-06-05T06:56:17;100765.13;;;12.09;88.81
70009;BME280;59542;37.950;-122.338;2023-06-05T06:58:43;100764.38;;;12.02;89.78
70009;BME280;59542;37.950;-122.338;2023-06-05T07:01:11;100761.63;;;12.08;89.68
70009;BME280;59542;37.950;-122.338;2023-06-05T07:03:38;100755.84;;;12.11;89.48
70009;BME280;59542;37.950;-122.338;2023-06-05T07:06:07;100765.19;;;12.02;89.98
70009;BME280;59542;37.950;-122.338;2023-06-05T07:08:34;100761.41;;;12.10;89.75
70009;BME280;59542;37.950;-122.338;2023-06-05T07:11:01;100754.69;;;12.01;90.29
70009;BME280;59542;37.950;-122.338;2023-06-05T07:13:27;100765.63;;;11.99;90.43
70009;BME280;59542;37.950;-122.338;2023-06-05T07:15:53;100756.75;;;11.99;90.54
70009;BME280;59542;37.950;-122.338;2023-06-05T07:18:19;100758.63;;;11.98;90.79
70009;BME280;59542;37.950;-122.338;2023-06-05T07:20:46;100762.75;;;12.01;90.96
70009;BME280;59542;37.950;-122.338;2023-06-05T07:23:14;100759.47;;;11.92;90.88
70009;BME280;59542;37.950;-122.338;2023-06-05T07:25:40;100754.94;;;11.93;91.19
70009;BME280;59542;37.950;-122.338;2023-06-05T07:28:09;100762.34;;;11.97;91.02
70009;BME280;59542;37.950;-122.338;2023-06-05T07:30:37;100748.81;;;11.85;91.13
70009;BME280;59542;37.950;-122.338;2023-06-05T07:33:03;100755.38;;;11.89;90.61
70009;BME280;59542;37.950;-122.338;2023-06-05T07:35:30;100757.91;;;11.84;90.84
70009;BME280;59542;37.950;-122.338;2023-06-05T07:37:56;100758.50;;;11.86;90.81
70009;BME280;59542;37.950;-122.338;2023-06-05T07:40:22;100764.31;;;11.83;91.65
70009;BME280;59542;37.950;-122.338;2023-06-05T07:42:48;100770.25;;;11.85;92.06
70009;BME280;59542;37.950;-122.338;2023-06-05T07:45:15;100774.97;;;11.90;91.45
70009;BME280;59542;37.950;-122.338;2023-06-05T07:47:41;100761.16;;;11.86;91.55
70009;BME280;59542;37.950;-122.338;2023-06-05T07:50:08;100773.88;;;11.98;91.21
70009;BME280;59542;37.950;-122.338;2023-06-05T07:52:35;100766.88;;;11.97;91.07
70009;BME280;59542;37.950;-122.338;2023-06-05T07:55:02;100767.31;;;11.94;90.93
70009;BME280;59542;37.950;-122.338;2023-06-05T07:57:29;100763.59;;;11.95;91.26
70009;BME280;59542;37.950;-122.338;2023-06-05T07:59:56;100759.88;;;11.96;90.48
70009;BME280;59542;37.950;-122.338;2023-06-05T08:02:22;100757.75;;;12.04;89.97
70009;BME280;59542;37.950;-122.338;2023-06-05T08:04:49;100765.59;;;12.06;90.31
70009;BME280;59542;37.950;-122.338;2023-06-05T08:07:15;100763.09;;;12.11;90.50
70009;BME280;59542;37.950;-122.338;2023-06-05T08:09:41;100766.94;;;12.15;90.73
70009;BME280;59542;37.950;-122.338;2023-06-05T08:12:08;100763.38;;;12.21;90.01
70009;BME280;59542;37.950;-122.338;2023-06-05T08:14:34;100758.81;;;12.28;89.73
70009;BME280;59542;37.950;-122.338;2023-06-05T08:17:01;100760.13;;;12.19;90.23
70009;BME280;59542;37.950;-122.338;2023-06-05T08:19:27;100745.91;;;12.37;89.69
70009;BME280;59542;37.950;-122.338;2023-06-05T08:21:53;100744.03;;;12.44;88.94
70009;BME280;59542;37.950;-122.338;2023-06-05T08:24:20;100742.31;;;12.50;87.85
70009;BME280;59542;37.950;-122.338;2023-06-05T08:26:47;100759.41;;;12.55;87.83
70009;BME280;59542;37.950;-122.338;2023-06-05T08:29:13;100748.59;;;12.62;87.54
70009;BME280;59542;37.950;-122.338;2023-06-05T08:31:39;100746.16;;;12.60;87.54
70009;BME280;59542;37.950;-122.338;2023-06-05T08:34:05;100740.47;;;12.68;87.06
70009;BME280;59542;37.950;-122.338;2023-06-05T08:36:32;100732.03;;;12.65;87.34
70009;BME280;59542;37.950;-122.338;2023-06-05T08:38:59;100726.66;;;12.65;87.06
70009;BME280;59542;37.950;-122.338;2023-06-05T08:41:25;100726.53;;;12.78;86.24
70009;BME280;59542;37.950;-122.338;2023-06-05T08:43:51;100723.53;;;12.50;86.83
70009;BME280;59542;37.950;-122.338;2023-06-05T08:46:18;100722.16;;;12.40;87.19
70009;BME280;59542;37.950;-122.338;2023-06-05T08:48:45;100726.81;;;12.52;86.83
70009;BME280;59542;37.950;-122.338;2023-06-05T08:51:13;100723.00;;;12.59;86.44
70009;BME280;59542;37.950;-122.338;2023-06-05T08:53:42;100727.13;;;12.62;86.74
70009;BME280;59542;37.950;-122.338;2023-06-05T08:56:11;100727.44;;;12.72;86.29
70009;BME280;59542;37.950;-122.338;2023-06-05T08:58:37;100725.41;;;12.67;86.77
70009;BME280;59542;37.950;-122.338;2023-06-05T09:01:03;100719.34;;;12.54;87.98
70009;BME280;59542;37.950;-122.338;2023-06-05T09:03:32;100717.19;;;12.62;87.13
70009;BME280;59542;37.950;-122.338;2023-06-05T09:05:59;100714.50;;;12.62;87.24
70009;BME280;59542;37.950;-122.338;2023-06-05T09:08:31;100734.13;;;12.63;86.74
70009;BME280;59542;37.950;-122.338;2023-06-05T09:11:23;100730.16;;;12.65;86.99
70009;BME280;59542;37.950;-122.338;2023-06-05T09:13:50;100722.34;;;12.64;86.80
70009;BME280;59542;37.950;-122.338;2023-06-05T09:16:20;100718.75;;;12.70;86.33
70009;BME280;59542;37.950;-122.338;2023-06-05T09:18:56;100716.47;;;12.74;86.09
70009;BME280;59542;37.950;-122.338;2023-06-05T09:21:25;100717.88;;;12.76;85.56
70009;BME280;59542;37.950;-122.338;2023-06-05T09:24:16;100728.91;;;12.68;85.99
70009;BME280;59542;37.950;-122.338;2023-06-05T09:29:13;100729.00;;;12.61;86.77
70009;BME280;59542;37.950;-122.338;2023-06-05T09:31:42;100726.31;;;12.61;87.03
70009;BME280;59542;37.950;-122.338;2023-06-05T09:34:08;100735.53;;;12.65;86.74
70009;BME280;59542;37.950;-122.338;2023-06-05T09:36:44;100737.84;;;12.62;86.53
70009;BME280;59542;37.950;-122.338;2023-06-05T09:39:14;100740.81;;;12.54;86.85
70009;BME280;59542;37.950;-122.338;2023-06-05T09:41:46;100738.44;;;12.64;86.41
70009;BME280;59542;37.950;-122.338;2023-06-05T09:44:13;100737.41;;;12.65;86.31
70009;BME280;59542;37.950;-122.338;2023-06-05T09:49:17;100726.81;;;12.52;86.85
70009;BME280;59542;37.950;-122.338;2023-06-05T09:51:44;100728.00;;;12.56;86.68
70009;BME280;59542;37.950;-122.338;2023-06-05T09:54:12;100717.84;;;12.58;86.95
70009;BME280;59542;37.950;-122.338;2023-06-05T09:56:48;100725.69;;;12.59;86.48
70009;BME280;59542;37.950;-122.338;2023-06-05T09:59:21;100726.81;;;12.52;86.37
70009;BME280;59542;37.950;-122.338;2023-06-05T10:01:49;100730.22;;;12.59;86.12
70009;BME280;59542;37.950;-122.338;2023-06-05T10:04:19;100726.22;;;12.68;85.68
70009;BME280;59542;37.950;-122.338;2023-06-05T10:06:47;100722.03;;;12.54;86.27
70009;BME280;59542;37.950;-122.338;2023-06-05T10:09:15;100715.91;;;12.65;86.09
70009;BME280;59542;37.950;-122.338;2023-06-05T10:11:41;100713.22;;;12.65;85.57
70009;BME280;59542;37.950;-122.338;2023-06-05T10:14:09;100714.19;;;12.52;85.77
70009;BME280;59542;37.950;-122.338;2023-06-05T10:16:36;100722.19;;;12.59;85.85
70009;BME280;59542;37.950;-122.338;2023-06-05T10:19:04;100720.84;;;12.68;85.79
70009;BME280;59542;37.950;-122.338;2023-06-05T10:21:30;100717.50;;;12.73;85.35
70009;BME280;59542;37.950;-122.338;2023-06-05T10:24:11;100716.00;;;12.77;85.36
70009;BME280;59542;37.950;-122.338;2023-06-05T10:40:09;100707.84;;;12.47;86.31
70009;BME280;59542;37.950;-122.338;2023-06-05T10:42:36;100706.38;;;12.51;86.53
70009;BME280;59542;37.950;-122.338;2023-06-05T10:45:03;100705.41;;;12.45;86.21
70009;BME280;59542;37.950;-122.338;2023-06-05T10:50:18;100706.66;;;12.42;86.79
70009;BME280;59542;37.950;-122.338;2023-06-05T10:52:49;100710.88;;;12.32;87.35
70009;BME280;59542;37.950;-122.338;2023-06-05T10:55:16;100707.75;;;12.35;87.58
70009;BME280;59542;37.950;-122.338;2023-06-05T11:00:27;100710.31;;;12.48;87.26
70009;BME280;59542;37.950;-122.338;2023-06-05T11:02:54;100721.00;;;12.55;86.98
70009;BME280;59542;37.950;-122.338;2023-06-05T11:05:20;100720.53;;;12.58;86.66
70009;BME280;59542;37.950;-122.338;2023-06-05T11:07:47;100726.31;;;12.61;86.05
70009;BME280;59542;37.950;-122.338;2023-06-05T11:10:16;100722.19;;;12.59;86.42
70009;BME280;59542;37.950;-122.338;2023-06-05T11:18:27;100736.50;;;12.53;86.70
70009;BME280;59542;37.950;-122.338;2023-06-05T11:20:55;100734.63;;;12.53;86.59
70009;BME280;59542;37.950;-122.338;2023-06-05T11:23:22;100725.91;;;12.58;86.64
70009;BME280;59542;37.950;-122.338;2023-06-05T11:25:54;100732.41;;;12.50;87.05
70009;BME280;59542;37.950;-122.338;2023-06-05T11:28:41;100731.41;;;12.45;87.02
70009;BME280;59542;37.950;-122.338;2023-06-05T11:31:07;100729.97;;;12.42;86.73
70009;BME280;59542;37.950;-122.338;2023-06-05T11:33:34;100732.56;;;12.55;85.88
70009;BME280;59542;37.950;-122.338;2023-06-05T11:36:03;100724.72;;;12.54;86.00
70009;BME280;59542;37.950;-122.338;2023-06-05T11:38:30;100736.66;;;12.58;85.32
70009;BME280;59542;37.950;-122.338;2023-06-05T11:40:56;100728.91;;;12.50;85.67
70009;BME280;59542;37.950;-122.338;2023-06-05T11:43:23;100728.16;;;12.61;85.43
70009;BME280;59542;37.950;-122.338;2023-06-05T11:45:52;100724.94;;;12.52;86.17
70009;BME280;59542;37.950;-122.338;2023-06-05T11:48:18;100721.34;;;12.58;86.27
70009;BME280;59542;37.950;-122.338;2023-06-05T11:50:59;100730.69;;;12.56;86.45
70009;BME280;59542;37.950;-122.338;2023-06-05T11:53:27;100735.91;;;12.51;86.73
70009;BME280;59542;37.950;-122.338;2023-06-05T11:55:55;100735.91;;;12.51;86.58
70009;BME280;59542;37.950;-122.338;2023-06-05T11:58:38;100739.66;;;12.43;86.84
70009;BME280;59542;37.950;-122.338;2023-06-05T12:01:14;100747.19;;;12.34;87.24
70009;BME280;59542;37.950;-122.338;2023-06-05T12:03:49;100743.03;;;12.38;86.90
70009;BME280;59542;37.950;-122.338;2023-06-05T12:06:16;100741.38;;;12.37;86.54
70009;BME280;59542;37.950;-122.338;2023-06-05T12:08:44;100739.31;;;12.39;86.46
70009;BME280;59542;37.950;-122.338;2023-06-05T12:11:21;100736.56;;;12.46;86.48
70009;BME280;59542;37.950;-122.338;2023-06-05T12:13:55;100742.19;;;12.38;87.05
70009;BME280;59542;37.950;-122.338;2023-06-05T12:16:35;100744.03;;;12.44;86.98
70009;BME280;59542;37.950;-122.338;2023-06-05T12:19:16;100749.44;;;12.37;87.32
70009;BME280;59542;37.950;-122.338;2023-06-05T12:21:47;100745.16;;;12.30;87.86
70009;BME280;59542;37.950;-122.338;2023-06-05T12:24:23;100742.88;;;12.33;87.13
70009;BME280;59542;37.950;-122.338;2023-06-05T12:27:00;100737.19;;;12.23;87.58
70009;BME280;59542;37.950;-122.338;2023-06-05T12:29:32;100745.31;;;12.10;88.27
70009;BME280;59542;37.950;-122.338;2023-06-05T12:32:00;100738.44;;;12.21;88.02
70009;BME280;59542;37.950;-122.338;2023-06-05T12:34:56;100748.16;;;12.15;88.63
70009;BME280;59542;37.950;-122.338;2023-06-05T12:37:29;100746.97;;;12.11;89.40
70009;BME280;59542;37.950;-122.338;2023-06-05T12:39:58;100742.97;;;12.20;88.35
70009;BME280;59542;37.950;-122.338;2023-06-05T12:42:25;100741.47;;;11.99;88.90
70009;BME280;59542;37.950;-122.338;2023-06-05T12:44:51;100738.31;;;12.09;88.77
70009;BME280;59542;37.950;-122.338;2023-06-05T12:47:17;100732.69;;;12.17;88.32
70009;BME280;59542;37.950;-122.338;2023-06-05T12:49:43;100734.31;;;12.18;87.88
70009;BME280;59542;37.950;-122.338;2023-06-05T12:52:10;100739.09;;;12.16;87.71
70009;BME280;59542;37.950;-122.338;2023-06-05T12:54:37;100739.53;;;12.13;88.16
70009;BME280;59542;37.950;-122.338;2023-06-05T12:57:04;100732.53;;;12.12;88.46
70009;BME280;59542;37.950;-122.338;2023-06-05T12:59:34;100741.72;;;12.23;87.63